Time;durP1;ratioP1;P1;durP2;ratioP2;P2;SDS_P1;SDS_P2;PMS_P1;PMS_P2;Temp;Humidity;BMP_temperature;BMP_pressure;BME280_temperature;BME280_humidity;BME280_pressure;Samples;Min_cycle;Max_cycle;Signal;HPM_P1;HPM_P2
2022/07/18 00:02:00;;;;;;;8.65;3.70;;;11.90;99.90;;;;;;4972957;28;20022;-82
2022/07/18 00:04:26;;;;;;;5.88;2.97;;;11.90;99.90;;;;;;4989974;28;20033;-83
2022/07/18 00:06:52;;;;;;;5.70;3.63;;;11.90;99.90;;;;;;4972876;28;20030;-83
2022/07/18 00:09:19;;;;;;;7.55;3.38;;;11.90;99.90;;;;;;4973164;28;20049;-82
2022/07/18 00:11:45;;;;;;;6.63;3.63;;;11.90;99.90;;;;;;4990205;28;20029;-82
2022/07/18 00:14:11;;;;;;;7.35;3.05;;;11.90;99.90;;;;;;4989994;28;20033;-82
2022/07/18 00:16:38;;;;;;;7.82;3.40;;;11.90;99.90;;;;;;4972737;28;20049;-84
2022/07/18 00:19:05;;;;;;;7.30;3.08;;;11.90;99.90;;;;;;4989703;28;20022;-82
2022/07/18 00:21:32;;;;;;;6.60;3.10;;;11.90;99.90;;;;;;4990071;28;20041;-81
2022/07/18 00:23:57;;;;;;;8.73;3.45;;;12.00;99.90;;;;;;4990098;28;20030;-83
2022/07/18 00:26:23;;;;;;;6.97;3.50;;;12.10;99.90;;;;;;4989893;28;20594;-82
2022/07/18 00:28:49;;;;;;;6.88;3.08;;;12.10;99.90;;;;;;4972124;28;20117;-82
2022/07/18 00:31:15;;;;;;;6.32;2.72;;;11.90;99.90;;;;;;4990017;28;20018;-82
2022/07/18 00:33:40;;;;;;;9.70;2.90;;;11.90;99.90;;;;;;4989466;28;20054;-82
2022/07/18 00:36:06;;;;;;;8.90;3.08;;;11.90;99.90;;;;;;4989472;28;20030;-83
2022/07/18 00:38:32;;;;;;;6.82;2.63;;;11.80;99.90;;;;;;4989889;28;20026;-83
2022/07/18 00:40:58;;;;;;;4.70;2.80;;;11.70;99.90;;;;;;4989837;28;20050;-82
2022/07/18 00:43:23;;;;;;;8.80;3.20;;;11.70;99.90;;;;;;4989687;28;20027;-82
2022/07/18 00:45:50;;;;;;;10.68;3.20;;;11.70;99.90;;;;;;4989755;28;20034;-82
2022/07/18 00:48:16;;;;;;;8.88;3.80;;;11.70;99.90;;;;;;4989411;28;20022;-83
2022/07/18 00:50:44;;;;;;;7.30;4.15;;;11.80;99.90;;;;;;4973671;28;20500;-82
2022/07/18 00:53:10;;;;;;;4.88;2.90;;;11.70;99.90;;;;;;4975975;28;20018;-82
2022/07/18 00:55:38;;;;;;;5.78;2.95;;;11.70;99.90;;;;;;4975861;28;20042;-83
2022/07/18 00:58:04;;;;;;;8.55;3.13;;;11.60;99.90;;;;;;4975824;28;20030;-82
2022/07/18 01:03:15;;;;;;;7.13;3.05;;;11.60;99.90;;;;;;4993655;28;20077;-82
2022/07/18 01:05:40;;;;;;;9.65;3.33;;;11.70;99.90;;;;;;4993284;28;20078;-82
2022/07/18 01:08:06;;;;;;;8.23;3.03;;;11.70;99.90;;;;;;4975719;28;20057;-82
2022/07/18 01:10:32;;;;;;;5.47;3.13;;;11.70;99.90;;;;;;4975926;28;20034;-83
2022/07/18 01:12:58;;;;;;;5.55;2.92;;;11.70;99.90;;;;;;4976035;28;20041;-82
2022/07/18 01:15:24;;;;;;;8.02;3.53;;;11.70;99.90;;;;;;4975806;28;20030;-82
2022/07/18 01:17:49;;;;;;;6.00;3.20;;;11.60;99.90;;;;;;4975595;28;20026;-82
2022/07/18 01:20:15;;;;;;;7.35;3.17;;;11.50;99.90;;;;;;4993125;28;20098;-82
2022/07/18 01:22:41;;;;;;;9.65;2.90;;;11.60;99.90;;;;;;4992986;28;20027;-82
2022/07/18 01:25:09;;;;;;;8.60;4.20;;;11.60;99.90;;;;;;4992786;28;20576;-82
2022/07/18 01:27:35;;;;;;;5.70;3.47;;;11.50;99.90;;;;;;4992909;28;20026;-82
2022/07/18 01:30:03;;;;;;;7.72;3.55;;;11.40;99.90;;;;;;4974839;28;20046;-83
2022/07/18 01:32:28;;;;;;;;;;;11.30;99.90;;;;;;4975266;28;20113;-83
2022/07/18 01:34:54;;;;;;;6.60;2.97;;;11.30;99.90;;;;;;4992531;28;20009;-82
2022/07/18 01:37:20;;;;;;;5.25;3.38;;;11.30;99.90;;;;;;4992837;28;20664;-82
2022/07/18 01:39:46;;;;;;;8.60;3.60;;;11.40;99.90;;;;;;4992387;28;20076;-82
2022/07/18 01:42:12;;;;;;;7.50;3.45;;;11.40;99.90;;;;;;5023457;23;20450;-57
2022/07/18 01:44:38;;;;;;;5.90;3.25;;;11.40;99.90;;;;;;5031654;28;20021;-57
2022/07/18 01:47:06;;;;;;;10.35;3.90;;;11.30;99.90;;;;;;5033502;28;20461;-58
2022/07/18 01:49:33;;;;;;;7.47;3.28;;;11.30;99.90;;;;;;5031879;28;20033;-57
2022/07/18 01:52:00;;;;;;;9.75;4.30;;;11.30;99.90;;;;;;5033277;28;20388;-58
2022/07/18 01:54:32;;;;;;;15.25;6.00;;;11.30;99.90;;;;;;5033227;28;20422;-56
2022/07/18 01:57:00;;;;;;;8.13;3.67;;;11.30;99.90;;;;;;5033215;28;20120;-57
2022/07/18 01:59:25;;;;;;;8.15;3.88;;;11.30;99.90;;;;;;5032928;28;20030;-58
2022/07/18 02:01:51;;;;;;;6.15;3.38;;;11.20;99.90;;;;;;5030830;28;20132;-58
2022/07/18 02:04:17;;;;;;;11.73;3.55;;;11.10;99.90;;;;;;5033232;28;20096;-57
2022/07/18 02:06:43;;;;;;;7.13;3.65;;;11.00;99.90;;;;;;5031650;28;20056;-59
2022/07/18 02:09:09;;;;;;;7.90;4.25;;;11.10;99.90;;;;;;5033087;28;20029;-58
2022/07/18 02:11:36;;;;;;;6.73;3.70;;;11.10;99.90;;;;;;5032898;28;20088;-58
2022/07/18 02:14:04;;;;;;;7.07;3.50;;;11.10;99.90;;;;;;5032791;28;20531;-58
2022/07/18 02:16:31;;;;;;;8.38;3.95;;;11.00;99.90;;;;;;5032746;28;20485;-58
2022/07/18 02:18:57;;;;;;;7.05;3.50;;;10.90;99.90;;;;;;5032965;28;20071;-58
2022/07/18 02:21:23;;;;;;;6.68;3.15;;;10.90;99.90;;;;;;5031440;28;20033;-58
2022/07/18 02:23:50;;;;;;;7.55;3.45;;;10.90;99.90;;;;;;5032651;28;20049;-58
2022/07/18 02:26:17;;;;;;;7.03;3.88;;;10.90;99.90;;;;;;5032586;28;20025;-57
2022/07/18 02:28:42;;;;;;;10.77;4.43;;;10.90;99.90;;;;;;5032623;28;20087;-59
2022/07/18 02:31:08;;;;;;;10.35;4.20;;;10.80;99.90;;;;;;5031202;28;20026;-58
2022/07/18 02:33:34;;;;;;;10.88;3.88;;;10.80;99.90;;;;;;5032365;28;20029;-58
2022/07/18 02:36:00;;;;;;;10.65;4.30;;;10.80;99.90;;;;;;5032496;28;20041;-58
2022/07/18 02:38:26;;;;;;;7.65;3.60;;;10.80;99.90;;;;;;5032281;28;20032;-58
2022/07/18 02:40:52;;;;;;;8.35;4.45;;;10.70;99.90;;;;;;5032547;28;20029;-58
2022/07/18 02:43:18;;;;;;;6.95;3.70;;;10.70;99.90;;;;;;5050067;28;20504;-59
2022/07/18 02:45:43;;;;;;;9.18;3.58;;;10.60;99.90;;;;;;5052166;28;20026;-59
2022/07/18 02:48:09;;;;;;;7.40;3.25;;;10.60;99.90;;;;;;5052062;28;20032;-59
2022/07/18 02:50:35;;;;;;;6.25;3.65;;;10.60;99.90;;;;;;5052120;28;20437;-58
2022/07/18 02:53:00;;;;;;;6.38;3.30;;;10.60;99.90;;;;;;5051969;28;20086;-58
2022/07/18 02:55:26;;;;;;;7.82;3.53;;;10.60;99.90;;;;;;5033762;28;20037;-58
2022/07/18 02:57:52;;;;;;;6.88;3.42;;;10.50;99.90;;;;;;5051828;28;20025;-57
2022/07/18 03:00:18;;;;;;;6.25;4.07;;;10.60;99.90;;;;;;5051579;28;20472;-60
2022/07/18 03:02:45;;;;;;;8.48;3.65;;;10.60;99.90;;;;;;5051685;28;20025;-57
2022/07/18 03:05:12;;;;;;;7.88;4.03;;;10.60;99.90;;;;;;5051840;28;20100;-58
2022/07/18 03:07:38;;;;;;;6.28;2.92;;;10.60;99.90;;;;;;5033609;28;20392;-58
2022/07/18 03:10:05;;;;;;;7.40;3.97;;;10.50;99.90;;;;;;5051511;28;20025;-59
2022/07/18 03:12:32;;;;;;;8.52;3.53;;;10.50;99.90;;;;;;5033555;28;20055;-59
2022/07/18 03:14:58;;;;;;;8.88;4.45;;;10.60;99.90;;;;;;5033272;28;20033;-58
2022/07/18 03:17:24;;;;;;;12.13;4.50;;;10.60;99.90;;;;;;5051598;28;20044;-59
2022/07/18 03:19:49;;;;;;;12.90;4.88;;;10.60;99.90;;;;;;5051232;28;20025;-57
2022/07/18 03:22:15;;;;;;;11.02;4.97;;;10.60;99.90;;;;;;5051188;28;20484;-58
2022/07/18 03:24:41;;;;;;;12.48;5.55;;;10.60;99.90;;;;;;5051242;28;20028;-57
2022/07/18 03:27:06;;;;;;;10.30;4.70;;;10.60;99.90;;;;;;5051217;28;20512;-57
2022/07/18 03:29:32;;;;;;;10.13;4.65;;;10.60;99.90;;;;;;5051054;28;20036;-58
2022/07/18 03:31:58;;;;;;;14.48;5.28;;;10.50;99.90;;;;;;5051057;28;20043;-57
2022/07/18 03:34:24;;;;;;;8.32;4.60;;;10.50;99.90;;;;;;5051254;28;20021;-58
2022/07/18 03:36:49;;;;;;;8.45;4.13;;;10.50;99.90;;;;;;5032890;28;20052;-58
2022/07/18 03:39:15;;;;;;;9.98;4.70;;;10.60;99.90;;;;;;5051442;28;20063;-58
2022/07/18 03:41:41;;;;;;;9.85;4.70;;;10.60;99.90;;;;;;5029503;28;20046;-58
2022/07/18 03:44:07;;;;;;;12.85;5.38;;;10.60;99.90;;;;;;5031026;28;20460;-58
2022/07/18 03:46:33;;;;;;;8.52;4.13;;;10.70;99.90;;;;;;5013264;28;20546;-57
2022/07/18 03:48:59;;;;;;;8.85;4.07;;;10.70;99.90;;;;;;5031037;28;20025;-58
2022/07/18 03:51:25;;;;;;;9.38;4.22;;;10.80;99.90;;;;;;5030848;28;20026;-58
2022/07/18 03:53:51;;;;;;;7.80;4.03;;;10.80;99.90;;;;;;5030729;28;20044;-58
2022/07/18 03:56:17;;;;;;;10.20;3.90;;;10.80;99.90;;;;;;5030629;28;20457;-58
2022/07/18 03:58:43;;;;;;;7.40;3.92;;;10.90;99.90;;;;;;5030729;28;20477;-57
2022/07/18 04:01:09;;;;;;;10.23;4.47;;;10.90;99.90;;;;;;5030680;28;20033;-58
2022/07/18 04:03:35;;;;;;;10.10;3.75;;;11.00;99.90;;;;;;5030765;28;20461;-58
2022/07/18 04:06:01;;;;;;;8.35;4.28;;;11.00;99.90;;;;;;5030557;28;20065;-58
2022/07/18 04:08:27;;;;;;;8.55;4.18;;;11.00;99.90;;;;;;5030508;28;20107;-58
2022/07/18 04:10:52;;;;;;;12.15;4.82;;;10.80;99.90;;;;;;5030770;28;20060;-58
2022/07/18 04:13:18;;;;;;;7.57;4.63;;;10.70;99.90;;;;;;5030510;28;20099;-57
2022/07/18 04:15:44;;;;;;;8.18;4.07;;;10.80;99.90;;;;;;5029122;28;20029;-58
2022/07/18 04:18:10;;;;;;;9.15;4.28;;;10.80;99.90;;;;;;5030679;28;20473;-57
2022/07/18 04:20:36;;;;;;;10.55;4.72;;;10.80;99.90;;;;;;5030380;28;20036;-57
2022/07/18 04:23:05;;;;;;;7.90;4.38;;;10.90;99.90;;;;;;5030338;28;20031;-57
2022/07/18 04:25:41;;;;;;;9.00;3.80;;;11.00;99.90;;;;;;5032237;28;20025;-57
2022/07/18 04:28:10;;;;;;;15.57;4.82;;;11.10;99.90;;;;;;5034758;28;20061;-57
2022/07/18 04:30:37;;;;;;;11.82;3.55;;;11.20;99.90;;;;;;5034374;28;20376;-57
2022/07/18 04:33:04;;;;;;;11.18;4.85;;;11.20;99.90;;;;;;5034630;28;20091;-57
2022/07/18 04:35:31;;;;;;;11.13;4.32;;;11.20;99.90;;;;;;5034359;28;20033;-57
2022/07/18 04:37:57;;;;;;;11.53;4.83;;;11.20;99.90;;;;;;5034538;28;20041;-57
2022/07/18 04:40:23;;;;;;;10.50;5.47;;;11.30;99.90;;;;;;5034270;28;20452;-57
2022/07/18 04:42:49;;;;;;;8.55;4.43;;;11.30;99.90;;;;;;5048172;28;20045;-57
2022/07/18 04:45:15;;;;;;;8.27;4.17;;;11.30;99.90;;;;;;5054078;28;20583;-57
2022/07/18 04:47:41;;;;;;;13.25;4.45;;;11.50;99.90;;;;;;5054081;28;20025;-57
2022/07/18 04:50:07;;;;;;;8.98;4.25;;;11.60;99.90;;;;;;5053986;28;20044;-57
2022/07/18 04:52:52;;;;;;;7.15;4.25;;;11.70;99.90;;;;;;5054184;28;20108;-57
2022/07/18 04:55:21;;;;;;;13.07;4.95;;;11.70;99.90;;;;;;5053950;28;20039;-57
2022/07/18 04:57:47;;;;;;;12.93;4.90;;;11.80;99.90;;;;;;5053984;28;20029;-57
2022/07/18 05:00:19;;;;;;;12.35;4.68;;;11.80;99.90;;;;;;5053762;28;20087;-57
2022/07/18 05:02:47;;;;;;;11.90;4.82;;;12.00;99.90;;;;;;5054112;28;20025;-58
2022/07/18 05:05:14;;;;;;;8.70;4.45;;;12.00;99.90;;;;;;5053738;28;20059;-57
2022/07/18 05:07:41;;;;;;;11.38;5.40;;;12.10;99.90;;;;;;5053919;28;20055;-57
2022/07/18 05:10:09;;;;;;;15.48;5.22;;;12.20;99.90;;;;;;5053736;28;20036;-57
2022/07/18 05:12:35;;;;;;;10.38;4.35;;;12.40;99.90;;;;;;5053565;28;20025;-56
2022/07/18 05:15:01;;;;;;;7.87;5.23;;;12.50;99.90;;;;;;5053474;28;20480;-57
2022/07/18 05:17:28;;;;;;;12.38;6.22;;;12.60;99.90;;;;;;5053853;28;20032;-57
2022/07/18 05:19:53;;;;;;;14.27;5.50;;;12.70;99.90;;;;;;5053779;28;20083;-57
2022/07/18 05:22:19;;;;;;;12.73;5.53;;;12.80;99.90;;;;;;5053460;28;20025;-57
2022/07/18 05:24:45;;;;;;;12.60;5.40;;;12.90;99.90;;;;;;5053508;28;20077;-57
2022/07/18 05:27:10;;;;;;;12.00;5.38;;;13.10;99.90;;;;;;5053488;28;20021;-57
2022/07/18 05:29:36;;;;;;;13.80;5.68;;;13.20;99.90;;;;;;5053321;28;20116;-57
2022/07/18 05:32:02;;;;;;;14.02;5.80;;;13.30;99.90;;;;;;5053348;28;20537;-57
2022/07/18 05:34:28;;;;;;;12.63;5.78;;;13.50;99.90;;;;;;5053554;28;20389;-56
2022/07/18 05:36:54;;;;;;;16.20;5.80;;;13.60;99.90;;;;;;5051904;28;20730;-57
2022/07/18 05:39:20;;;;;;;13.03;4.80;;;13.80;99.90;;;;;;5053281;28;20051;-57
2022/07/18 05:41:46;;;;;;;13.80;4.85;;;13.90;99.90;;;;;;5052938;28;20403;-57
2022/07/18 05:44:11;;;;;;;16.38;4.13;;;14.10;99.90;;;;;;5053022;28;20059;-57
2022/07/18 05:46:37;;;;;;;8.23;3.63;;;14.10;99.90;;;;;;5053051;28;20036;-57
2022/07/18 05:49:03;;;;;;;8.73;4.00;;;14.30;99.90;;;;;;5053172;28;20024;-57
2022/07/18 05:51:28;;;;;;;12.23;3.80;;;14.50;99.90;;;;;;5052991;28;20035;-57
2022/07/18 05:53:54;;;;;;;9.30;4.30;;;14.60;99.90;;;;;;5052884;28;20021;-57
2022/07/18 05:56:20;;;;;;;12.35;4.03;;;14.60;99.90;;;;;;5052831;28;20430;-57
2022/07/18 05:58:45;;;;;;;11.30;3.63;;;14.70;99.90;;;;;;5052839;28;20025;-58
2022/07/18 06:01:16;;;;;;;10.55;3.47;;;14.70;99.90;;;;;;5052803;28;20112;-57
2022/07/18 06:03:42;;;;;;;10.00;3.72;;;14.80;99.90;;;;;;5052699;28;20055;-57
2022/07/18 06:06:08;;;;;;;9.55;3.30;;;14.90;99.90;;;;;;5052805;28;20031;-57
2022/07/18 06:08:34;;;;;;;7.35;2.83;;;15.00;99.90;;;;;;5052625;28;20636;-57
2022/07/18 06:10:59;;;;;;;5.40;2.85;;;15.00;99.90;;;;;;5052696;28;20055;-57
2022/07/18 06:13:25;;;;;;;10.27;3.05;;;15.10;99.90;;;;;;5052480;28;20028;-57
2022/07/18 06:15:51;;;;;;;6.25;2.28;;;15.20;99.90;;;;;;5052383;28;20068;-57
2022/07/18 06:18:16;;;;;;;6.97;3.15;;;15.30;99.90;;;;;;5052472;28;20036;-57
2022/07/18 06:20:42;;;;;;;11.10;3.05;;;15.40;99.90;;;;;;5052285;28;20033;-57
2022/07/18 06:23:08;;;;;;;8.70;3.15;;;15.50;99.90;;;;;;5052373;28;20083;-57
2022/07/18 06:25:33;;;;;;;7.50;2.72;;;15.60;99.90;;;;;;5052365;28;20021;-57
2022/07/18 06:27:59;;;;;;;5.75;2.70;;;15.70;99.90;;;;;;5052310;28;20389;-57
2022/07/18 06:30:25;;;;;;;9.48;3.60;;;15.80;99.90;;;;;;5052097;28;20078;-57
2022/07/18 06:32:50;;;;;;;13.05;3.35;;;15.90;99.90;;;;;;5052190;28;20074;-57
2022/07/18 06:35:16;;;;;;;8.52;3.30;;;15.90;99.90;;;;;;5052187;28;20029;-57
2022/07/18 06:37:42;;;;;;;10.32;3.03;;;16.00;99.90;;;;;;5052163;28;20032;-57
2022/07/18 06:40:08;;;;;;;10.85;2.78;;;16.20;99.90;;;;;;5052009;28;20528;-57
2022/07/18 06:42:34;;;;;;;6.75;2.60;;;16.20;99.90;;;;;;5051644;28;20067;-57
2022/07/18 06:45:00;;;;;;;8.23;2.83;;;16.20;99.90;;;;;;5033848;28;20021;-57
2022/07/18 06:47:25;;;;;;;7.88;2.60;;;16.30;99.90;;;;;;5051975;28;20476;-57
2022/07/18 06:49:51;;;;;;;11.30;2.80;;;16.50;99.90;;;;;;5051634;28;20483;-57
2022/07/18 06:52:17;;;;;;;10.65;3.28;;;16.50;99.90;;;;;;5051714;28;20049;-57
2022/07/18 06:54:43;;;;;;;7.05;2.70;;;16.60;99.90;;;;;;5051645;28;20500;-57
2022/07/18 06:57:09;;;;;;;7.63;2.45;;;16.70;99.90;;;;;;5052178;28;20068;-57
2022/07/18 06:59:35;;;;;;;9.63;3.42;;;16.70;99.90;;;;;;5051522;28;20381;-57
2022/07/18 07:02:02;;;;;;;10.80;2.38;;;16.90;99.90;;;;;;5051619;28;20072;-57
2022/07/18 07:04:27;;;;;;;9.60;2.72;;;17.10;99.90;;;;;;5051491;28;20029;-57
2022/07/18 07:06:53;;;;;;;12.93;2.75;;;17.10;99.90;;;;;;5051504;28;20021;-57
2022/07/18 07:09:19;;;;;;;11.82;3.53;;;17.10;99.90;;;;;;5051522;28;20071;-56
2022/07/18 07:11:44;;;;;;;12.95;2.75;;;17.40;99.90;;;;;;5051418;28;20104;-57
2022/07/18 07:14:10;;;;;;;11.63;2.90;;;17.60;99.90;;;;;;5051478;28;20039;-57
2022/07/18 07:16:36;;;;;;;9.98;2.75;;;17.50;99.90;;;;;;5051044;28;20514;-57
2022/07/18 07:19:01;;;;;;;8.52;2.95;;;17.60;99.90;;;;;;5051315;28;20083;-57
2022/07/18 07:21:27;;;;;;;12.52;2.95;;;17.70;99.90;;;;;;5051324;28;20044;-57
2022/07/18 07:23:53;;;;;;;6.43;2.15;;;17.80;99.90;;;;;;5033396;28;20033;-57
2022/07/18 07:26:19;;;;;;;13.20;2.65;;;17.90;99.90;;;;;;5051100;28;20056;-57
2022/07/18 07:28:45;;;;;;;5.45;2.33;;;18.00;98.60;;;;;;5051196;28;20087;-57
2022/07/18 07:31:11;;;;;;;7.07;2.00;;;18.10;99.70;;;;;;5050862;28;20563;-57
2022/07/18 07:33:37;;;;;;;8.98;2.20;;;18.40;99.80;;;;;;5051143;28;20104;-57
2022/07/18 07:36:04;;;;;;;10.32;3.90;;;18.40;98.90;;;;;;5050856;28;20585;-57
2022/07/18 07:38:30;;;;;;;9.15;2.53;;;18.50;97.20;;;;;;5050992;28;20036;-57
2022/07/18 07:40:56;;;;;;;5.20;2.75;;;18.70;96.70;;;;;;5032905;28;20044;-57
2022/07/18 07:43:24;;;;;;;8.02;2.13;;;18.80;94.90;;;;;;5050704;28;20049;-57
2022/07/18 07:45:51;;;;;;;9.82;2.33;;;18.80;95.80;;;;;;5050919;28;20075;-57
2022/07/18 07:48:17;;;;;;;5.97;2.15;;;19.00;93.30;;;;;;5050570;28;20033;-57
2022/07/18 07:50:43;;;;;;;11.70;2.13;;;19.10;92.90;;;;;;5051159;28;20021;-57
2022/07/18 07:53:09;;;;;;;10.10;2.38;;;19.10;94.30;;;;;;5050618;28;20029;-57
2022/07/18 07:55:35;;;;;;;10.10;2.05;;;19.10;94.70;;;;;;5050701;28;20044;-56
2022/07/18 07:58:01;;;;;;;8.50;1.67;;;19.30;92.50;;;;;;5050687;28;20074;-57
2022/07/18 08:00:27;;;;;;;6.00;1.90;;;19.30;91.10;;;;;;5015439;28;20036;-56
2022/07/18 08:02:58;;;;;;;5.47;1.88;;;19.40;92.50;;;;;;5050351;28;20167;-57
2022/07/18 08:05:25;;;;;;;5.90;1.67;;;19.60;90.20;;;;;;5050372;28;20032;-57
2022/07/18 08:07:50;;;;;;;7.15;1.45;;;19.70;91.90;;;;;;5050306;28;20490;-57
2022/07/18 08:10:16;;;;;;;11.20;1.38;;;19.60;86.50;;;;;;5050493;28;20029;-57
2022/07/18 08:12:43;;;;;;;7.72;1.27;;;19.70;84.70;;;;;;5050392;28;20078;-57
2022/07/18 08:15:09;;;;;;;8.95;2.33;;;19.90;86.40;;;;;;5050328;28;20032;-57
2022/07/18 08:17:35;;;;;;;5.78;1.42;;;19.90;85.70;;;;;;5050346;28;20028;-57
2022/07/18 08:20:01;;;;;;;5.15;1.80;;;20.00;87.90;;;;;;5050344;28;20043;-57
2022/07/18 08:22:26;;;;;;;7.90;2.35;;;19.90;84.60;;;;;;5050127;28;20025;-57
2022/07/18 08:24:52;;;;;;;6.07;1.40;;;20.20;85.50;;;;;;5050384;28;20120;-57
2022/07/18 08:27:18;;;;;;;5.53;1.67;;;20.40;84.10;;;;;;5050528;28;20096;-56
2022/07/18 08:29:44;;;;;;;6.15;1.60;;;20.40;81.80;;;;;;5050348;28;20473;-56
2022/07/18 08:32:09;;;;;;;5.75;1.40;;;20.50;82.70;;;;;;5050151;28;20049;-57
2022/07/18 08:34:35;;;;;;;6.45;1.52;;;20.50;82.50;;;;;;5050136;28;20021;-56
2022/07/18 08:37:01;;;;;;;5.32;1.50;;;20.70;78.90;;;;;;5050149;28;20033;-57
2022/07/18 08:39:26;;;;;;;5.90;2.13;;;20.60;81.00;;;;;;5050261;28;20645;-56
2022/07/18 08:41:54;;;;;;;6.00;2.13;;;20.70;84.10;;;;;;5049973;28;20049;-56
2022/07/18 08:44:21;;;;;;;9.70;1.67;;;20.80;84.40;;;;;;5050255;28;20083;-56
2022/07/18 08:46:51;;;;;;;4.28;1.27;;;21.00;83.20;;;;;;5050028;28;20055;-56
2022/07/18 08:49:17;;;;;;;10.35;1.98;;;21.10;76.50;;;;;;5049407;28;20037;-56
2022/07/18 08:51:44;;;;;;;4.25;1.30;;;21.10;78.00;;;;;;5049894;28;20067;-56
2022/07/18 08:54:10;;;;;;;4.13;1.30;;;21.10;76.50;;;;;;5050165;28;20029;-56
2022/07/18 08:56:36;;;;;;;7.97;2.42;;;21.20;75.20;;;;;;5049903;28;20044;-56
2022/07/18 08:59:03;;;;;;;4.78;1.40;;;21.20;75.20;;;;;;5050079;28;20025;-55
2022/07/18 09:01:32;;;;;;;5.38;1.30;;;21.30;77.60;;;;;;5048656;28;20048;-56
2022/07/18 09:04:24;;;;;;;4.85;1.58;;;21.40;74.40;;;;;;5049803;28;20036;-56
2022/07/18 09:06:52;;;;;;;5.35;1.20;;;21.10;72.10;;;;;;5049967;28;20390;-56
2022/07/18 09:09:18;;;;;;;5.65;1.40;;;21.20;72.10;;;;;;5050089;28;20033;-56
2022/07/18 09:11:59;;;;;;;9.20;1.35;;;21.20;72.20;;;;;;5051577;28;20028;-57
2022/07/18 09:14:36;;;;;;;5.95;1.13;;;21.40;70.40;;;;;;5053782;28;20033;-57
2022/07/18 09:17:14;;;;;;;5.88;1.35;;;21.20;71.20;;;;;;5053471;28;20037;-56
2022/07/18 09:19:56;;;;;;;4.15;1.27;;;21.30;74.20;;;;;;5053783;28;20445;-56
2022/07/18 09:22:25;;;;;;;4.68;1.55;;;21.70;73.20;;;;;;5052159;28;20388;-57
2022/07/18 09:24:57;;;;;;;4.03;1.45;;;21.70;73.10;;;;;;5053596;28;20052;-57
2022/07/18 09:27:32;;;;;;;15.98;1.77;;;21.90;70.40;;;;;;5053739;28;20028;-56
2022/07/18 09:30:11;;;;;;;4.47;1.40;;;21.80;71.10;;;;;;5053536;28;20722;-56
2022/07/18 09:32:39;;;;;;;3.75;1.13;;;21.70;65.00;;;;;;5053307;28;20106;-56
2022/07/18 09:35:16;;;;;;;4.68;1.75;;;21.90;72.40;;;;;;5053281;28;20033;-56
2022/07/18 09:37:52;;;;;;;;;;;22.00;65.50;;;;;;5053842;28;20095;-56
2022/07/18 09:40:20;;;;;;;6.25;1.63;;;22.20;66.70;;;;;;5053295;28;19962;-55
2022/07/18 09:42:52;;;;;;;;;;;22.40;64.80;;;;;;5053357;28;20409;-56
2022/07/18 09:45:29;;;;;;;4.30;1.23;;;22.30;62.40;;;;;;5053082;28;20363;-56
2022/07/18 09:48:03;;;;;;;8.80;1.67;;;22.20;64.40;;;;;;5053226;28;20051;-55
2022/07/18 09:50:32;;;;;;;5.13;1.38;;;22.30;68.00;;;;;;5053266;28;20031;-56
2022/07/18 09:53:02;;;;;;;6.25;1.05;;;22.70;65.00;;;;;;5034912;28;20464;-56
2022/07/18 09:55:29;;;;;;;5.88;1.08;;;22.80;62.10;;;;;;5052949;28;20116;-56
2022/07/18 09:58:07;;;;;;;4.33;1.30;;;22.50;59.40;;;;;;5052950;28;20169;-56
2022/07/18 10:00:36;;;;;;;3.55;1.40;;;22.50;60.50;;;;;;5053043;28;20165;-56
2022/07/18 10:03:04;;;;;;;4.82;1.13;;;22.20;60.00;;;;;;5052728;28;20017;-56
2022/07/18 10:05:33;;;;;;;6.28;1.10;;;22.40;62.00;;;;;;5052824;28;20358;-56
2022/07/18 10:08:05;;;;;;;4.97;1.33;;;22.80;63.70;;;;;;5052733;28;20040;-56
2022/07/18 10:10:31;;;;;;;5.88;1.25;;;22.60;61.00;;;;;;5034716;28;20099;-56
2022/07/18 10:12:59;;;;;;;9.60;1.02;;;23.00;64.00;;;;;;5052467;28;20080;-57
2022/07/18 10:15:31;;;;;;;4.70;1.20;;;23.30;61.10;;;;;;5052385;28;20032;-56
2022/07/18 10:17:58;;;;;;;5.85;1.00;;;23.40;66.00;;;;;;5052340;28;20576;-56
2022/07/18 10:20:33;;;;;;;3.78;1.17;;;23.20;66.10;;;;;;5034570;28;20032;-57
2022/07/18 10:23:08;;;;;;;4.57;1.13;;;22.80;65.10;;;;;;5051699;28;20554;-57
2022/07/18 10:25:34;;;;;;;5.03;0.95;;;23.50;67.20;;;;;;5052332;28;20029;-57
2022/07/18 10:28:11;;;;;;;3.72;1.10;;;23.50;60.30;;;;;;5052222;28;20033;-57
2022/07/18 10:30:49;;;;;;;6.78;1.02;;;23.30;60.00;;;;;;5052262;28;20025;-56
2022/07/18 10:33:41;;;;;;;3.78;0.90;;;23.10;62.00;;;;;;5052034;28;20036;-56
2022/07/18 10:36:10;;;;;;;8.10;1.48;;;23.80;62.20;;;;;;5052086;28;20400;-57
2022/07/18 10:38:37;;;;;;;4.57;1.13;;;24.30;64.00;;;;;;5034182;28;20113;-57
2022/07/18 10:41:08;;;;;;;2.88;1.10;;;24.40;68.10;;;;;;5052249;28;20029;-57
2022/07/18 10:43:42;;;;;;;4.10;0.93;;;24.60;63.90;;;;;;5051974;28;20065;-57
2022/07/18 10:46:09;;;;;;;18.33;1.80;;;23.90;61.60;;;;;;5051893;28;20433;-57
2022/07/18 10:48:35;;;;;;;6.90;1.48;;;24.30;65.10;;;;;;5051846;28;20028;-57
2022/07/18 10:51:09;;;;;;;5.78;1.30;;;24.80;69.20;;;;;;5052162;28;20024;-57
2022/07/18 10:53:59;;;;;;;4.75;1.10;;;25.30;60.20;;;;;;5051773;28;20079;-56
2022/07/18 10:56:28;;;;;;;3.85;1.40;;;25.00;58.50;;;;;;5051697;28;20035;-56
2022/07/18 10:59:14;;;;;;;4.30;0.98;;;25.10;61.20;;;;;;5051686;28;20492;-56
2022/07/18 11:01:54;;;;;;;3.10;1.25;;;25.50;63.70;;;;;;5051692;28;20108;-57
2022/07/18 11:04:30;;;;;;;3.88;1.13;;;25.50;56.70;;;;;;5051612;28;20021;-57
2022/07/18 11:07:16;;;;;;;3.15;0.82;;;25.70;65.30;;;;;;5051517;28;20079;-56
2022/07/18 11:09:47;;;;;;;10.15;1.30;;;25.80;59.80;;;;;;5051106;28;20544;-57
2022/07/18 11:12:31;;;;;;;6.38;1.08;;;26.10;60.70;;;;;;5051488;28;20041;-57
2022/07/18 11:15:06;;;;;;;4.38;1.67;;;26.30;59.50;;;;;;5051439;28;20120;-57
2022/07/18 11:17:54;;;;;;;4.22;1.42;;;25.60;57.80;;;;;;5051325;28;20112;-57
2022/07/18 11:20:29;;;;;;;4.77;1.00;;;25.90;61.70;;;;;;5051266;28;20525;-57
2022/07/18 11:22:56;;;;;;;2.95;1.20;;;26.30;60.90;;;;;;5033860;28;20504;-57
2022/07/18 11:25:28;;;;;;;6.30;1.08;;;26.30;57.50;;;;;;5051165;28;20032;-57
2022/07/18 11:27:55;;;;;;;5.65;1.40;;;26.00;57.10;;;;;;5051143;28;20072;-56
2022/07/18 11:30:22;;;;;;;5.30;1.40;;;26.40;58.70;;;;;;5051194;28;20032;-57
2022/07/18 11:32:48;;;;;;;4.80;1.23;;;26.40;55.90;;;;;;5050984;28;20086;-57
2022/07/18 11:35:14;;;;;;;6.63;1.50;;;26.20;55.70;;;;;;5051165;28;20104;-57
2022/07/18 11:37:48;;;;;;;7.20;1.53;;;25.80;56.80;;;;;;5051004;28;20021;-57
2022/07/18 11:40:14;;;;;;;6.93;1.70;;;25.80;57.80;;;;;;5050878;28;20055;-57
2022/07/18 11:42:41;;;;;;;9.10;1.48;;;26.20;58.70;;;;;;5050684;28;20051;-57
2022/07/18 11:45:09;;;;;;;9.93;1.65;;;26.30;57.40;;;;;;5050868;28;20037;-57
2022/07/18 11:47:52;;;;;;;2.00;0.93;;;26.40;57.70;;;;;;5032920;28;20025;-57
2022/07/18 11:50:34;;;;;;;7.07;1.23;;;26.60;57.20;;;;;;5050675;28;20511;-57
2022/07/18 11:53:01;;;;;;;2.97;1.25;;;26.40;54.30;;;;;;5050525;28;20056;-57
2022/07/18 11:55:37;;;;;;;4.63;1.20;;;26.40;57.30;;;;;;5050575;28;20033;-57
2022/07/18 11:58:11;;;;;;;4.50;1.20;;;26.50;55.40;;;;;;5050535;28;20538;-57
2022/07/18 12:00:38;;;;;;;3.80;1.30;;;26.50;58.50;;;;;;5050690;28;20029;-57
2022/07/18 12:03:22;;;;;;;6.68;2.08;;;26.40;56.00;;;;;;5050599;28;20147;-56
2022/07/18 12:05:53;;;;;;;3.55;0.70;;;26.70;58.10;;;;;;5050510;28;20037;-57
2022/07/18 12:08:38;;;;;;;7.00;1.60;;;27.10;55.90;;;;;;5050707;28;20044;-57
2022/07/18 12:11:26;;;;;;;4.63;1.13;;;27.30;59.90;;;;;;5050487;28;20036;-57
2022/07/18 12:13:56;;;;;;;3.83;1.13;;;27.60;55.80;;;;;;5032704;28;20072;-57
2022/07/18 12:16:29;;;;;;;3.15;0.82;;;27.90;61.50;;;;;;5050318;28;20056;-57
2022/07/18 12:18:58;;;;;;;8.02;1.27;;;28.20;56.20;;;;;;5050624;28;20025;-57
2022/07/18 12:21:37;;;;;;;5.15;1.20;;;27.40;52.60;;;;;;5050441;28;20090;-57
2022/07/18 12:24:23;;;;;;;4.18;1.10;;;27.20;56.10;;;;;;5050462;28;20422;-57
2022/07/18 12:26:56;;;;;;;3.20;0.93;;;26.60;53.90;;;;;;5050347;28;20031;-57
2022/07/18 12:29:22;;;;;;;4.30;0.90;;;26.90;56.00;;;;;;5050466;28;20021;-57
2022/07/18 12:31:48;;;;;;;4.95;1.60;;;26.60;53.40;;;;;;5050231;28;20039;-57
2022/07/18 12:34:16;;;;;;;3.53;1.00;;;26.10;52.60;;;;;;5050250;28;20487;-57
2022/07/18 12:36:57;;;;;;;9.43;1.48;;;26.30;56.60;;;;;;5050070;28;20124;-56
2022/07/18 12:39:30;;;;;;;4.35;1.20;;;26.60;59.40;;;;;;5050641;28;20031;-57
2022/07/18 12:41:57;;;;;;;4.43;1.35;;;26.90;56.50;;;;;;5049993;28;20033;-57
2022/07/18 12:44:27;;;;;;;2.42;1.40;;;27.10;54.70;;;;;;5050265;28;20036;-57
2022/07/18 12:46:54;;;;;;;4.75;1.17;;;27.00;56.30;;;;;;5034853;28;20032;-58
2022/07/18 12:49:20;;;;;;;6.38;1.30;;;27.30;57.80;;;;;;5054168;28;20021;-57
2022/07/18 12:51:46;;;;;;;3.85;1.20;;;27.60;58.70;;;;;;5054384;28;20037;-57
2022/07/18 12:54:12;;;;;;;6.00;1.63;;;27.60;58.00;;;;;;5054142;28;20336;-60